Time;durP1;ratioP1;P1;durP2;ratioP2;P2;SDS_P1;SDS_P2;PMS_P1;PMS_P2;Temp;Humidity;BMP_temperature;BMP_pressure;BME280_temperature;BME280_humidity;BME280_pressure;Samples;Min_cycle;Max_cycle;Signal;HPM_P1;HPM_P2
2022/06/07 00:01:34;;;;;;;10.63;4.03;;;12.40;99.90;;;;;;5076219;28;20051;-69
2022/06/07 00:04:00;;;;;;;6.80;3.97;;;12.50;99.90;;;;;;5058328;28;20032;-70
2022/06/07 00:06:27;;;;;;;7.53;3.58;;;12.40;99.90;;;;;;5059111;28;20392;-69
2022/06/07 00:08:52;;;;;;;10.43;3.88;;;12.50;99.90;;;;;;5076806;28;20515;-69
2022/06/07 00:11:19;;;;;;;6.28;3.30;;;12.40;99.90;;;;;;5096418;28;20146;-69
2022/06/07 00:13:46;;;;;;;7.93;3.80;;;12.40;99.90;;;;;;5096002;28;20051;-70
2022/06/07 00:16:12;;;;;;;13.98;4.35;;;12.40;99.90;;;;;;5078318;28;20059;-69
2022/06/07 00:18:38;;;;;;;14.18;4.70;;;12.40;99.90;;;;;;5096265;28;20040;-69
2022/06/07 00:21:04;;;;;;;8.55;3.00;;;12.50;99.90;;;;;;5078158;28;20050;-69
2022/06/07 00:23:31;;;;;;;8.25;4.60;;;12.40;99.90;;;;;;5060091;28;20056;-69
2022/06/07 00:25:58;;;;;;;10.07;4.80;;;12.40;99.90;;;;;;5058636;28;20114;-69
2022/06/07 00:28:25;;;;;;;8.80;4.35;;;12.40;99.90;;;;;;5057568;28;20040;-69
2022/06/07 00:30:52;;;;;;;15.23;4.72;;;12.40;99.90;;;;;;5058086;28;20053;-70
2022/06/07 00:33:21;;;;;;;7.28;3.85;;;12.50;99.90;;;;;;5075565;28;20040;-69
2022/06/07 00:35:47;;;;;;;9.05;3.83;;;12.50;99.90;;;;;;5075716;28;20127;-69
2022/06/07 00:38:13;;;;;;;9.73;4.32;;;12.50;99.90;;;;;;5074729;28;20110;-70
2022/06/07 00:40:39;;;;;;;13.80;4.57;;;12.40;99.90;;;;;;5057955;28;20048;-71
2022/06/07 00:43:05;;;;;;;6.93;4.38;;;12.50;99.90;;;;;;5075549;28;20048;-69
2022/06/07 00:45:30;;;;;;;16.60;4.15;;;12.50;99.90;;;;;;5057713;28;20052;-69
2022/06/07 00:47:56;;;;;;;7.68;3.83;;;12.50;99.90;;;;;;5075043;28;20123;-69
2022/06/07 00:50:40;;;;;;;13.68;4.97;;;12.50;99.90;;;;;;5058188;28;20871;-69
2022/06/07 00:53:36;;;;;;;6.80;3.50;;;12.50;99.90;;;;;;5056413;28;20056;-69
2022/06/07 00:56:02;;;;;;;8.70;3.80;;;12.50;99.90;;;;;;5074595;28;20052;-70
2022/06/07 00:58:29;;;;;;;6.47;3.95;;;12.50;99.90;;;;;;5057382;28;20048;-69
2022/06/07 01:00:57;;;;;;;10.65;4.30;;;12.50;99.90;;;;;;5057293;28;20486;-69
2022/06/07 01:03:23;;;;;;;11.00;4.65;;;12.50;99.90;;;;;;5057274;28;20041;-70
2022/06/07 01:05:53;;;;;;;11.25;3.92;;;12.50;99.90;;;;;;5057067;28;20063;-69
2022/06/07 01:11:05;;;;;;;10.10;4.85;;;12.60;99.90;;;;;;5095184;28;20040;-69
2022/06/07 01:13:33;;;;;;;8.82;4.47;;;12.60;99.90;;;;;;5077399;28;20188;-68
2022/06/07 01:16:02;;;;;;;11.77;5.10;;;12.60;99.90;;;;;;5077677;28;20337;-69
2022/06/07 01:18:29;;;;;;;7.82;4.60;;;12.60;99.90;;;;;;5077422;28;20081;-69
2022/06/07 01:21:16;;;;;;;10.85;4.55;;;12.60;99.90;;;;;;5077495;28;20040;-69
2022/06/07 01:23:43;;;;;;;7.55;4.20;;;12.60;99.90;;;;;;5058028;28;20044;-70
2022/06/07 01:26:10;;;;;;;9.82;5.35;;;12.60;99.90;;;;;;5058890;28;20119;-69
2022/06/07 01:28:36;;;;;;;13.52;5.75;;;12.60;99.90;;;;;;5074653;28;20040;-69
2022/06/07 01:31:02;;;;;;;12.40;5.40;;;12.60;99.90;;;;;;5057321;28;20364;-69
2022/06/07 01:33:28;;;;;;;8.98;5.13;;;12.60;99.90;;;;;;5057069;28;20360;-70
2022/06/07 01:36:04;;;;;;;13.63;4.97;;;12.60;99.90;;;;;;5057072;28;20094;-69
2022/06/07 01:38:32;;;;;;;9.32;5.35;;;12.60;99.90;;;;;;5057458;28;20044;-70
2022/06/07 01:43:42;;;;;;;9.45;5.53;;;12.60;99.90;;;;;;5056848;28;20124;-69
2022/06/07 01:46:07;;;;;;;12.93;5.18;;;12.60;99.90;;;;;;5056867;28;20420;-69
2022/06/07 01:48:33;;;;;;;10.23;4.78;;;12.60;99.90;;;;;;5056720;28;20055;-69
2022/06/07 01:51:07;;;;;;;9.98;4.80;;;12.60;99.90;;;;;;5057305;28;20048;-70
2022/06/07 01:53:34;;;;;;;12.60;5.05;;;12.60;99.90;;;;;;5074448;28;20102;-69
2022/06/07 01:56:30;;;;;;;11.90;4.65;;;12.60;99.90;;;;;;5060885;28;20495;-69
2022/06/07 01:58:57;;;;;;;11.93;4.60;;;12.60;99.90;;;;;;5055981;28;20090;-69
2022/06/07 02:01:23;;;;;;;11.93;5.07;;;12.60;99.90;;;;;;5056563;28;20041;-69
2022/06/07 02:03:49;;;;;;;11.10;4.55;;;12.80;99.90;;;;;;5059297;28;20045;-69
2022/06/07 02:06:15;;;;;;;13.27;4.93;;;12.60;99.90;;;;;;5044271;28;20067;-70
2022/06/07 02:08:41;;;;;;;14.18;5.05;;;12.60;99.90;;;;;;5060514;28;20388;-69
2022/06/07 02:11:13;;;;;;;11.23;5.25;;;12.70;99.90;;;;;;5060247;28;20373;-70
2022/06/07 02:13:39;;;;;;;10.45;4.80;;;12.60;99.90;;;;;;5060145;28;20040;-69
2022/06/07 02:16:06;;;;;;;10.82;4.47;;;12.60;99.90;;;;;;5077835;28;20090;-69
2022/06/07 02:18:33;;;;;;;8.50;4.82;;;12.70;99.90;;;;;;5060315;28;20040;-70
2022/06/07 02:21:00;;;;;;;11.25;4.32;;;12.60;99.90;;;;;;5060200;28;20093;-69
2022/06/07 02:23:27;;;;;;;9.02;4.57;;;12.60;99.90;;;;;;5060576;28;20044;-69
2022/06/07 02:25:57;;;;;;;9.38;4.47;;;12.70;99.90;;;;;;5071138;28;20055;-69
2022/06/07 02:28:26;;;;;;;9.20;5.18;;;12.70;99.90;;;;;;5063872;28;20129;-70
2022/06/07 02:30:52;;;;;;;11.80;3.90;;;12.70;99.90;;;;;;5079953;28;20063;-70
2022/06/07 02:33:18;;;;;;;8.77;4.30;;;12.70;99.90;;;;;;5098331;28;20391;-69
2022/06/07 02:35:45;;;;;;;8.32;5.13;;;12.60;99.90;;;;;;5079815;28;20476;-69
2022/06/07 02:38:12;;;;;;;36.35;5.85;;;12.60;99.90;;;;;;5098016;28;20144;-68
2022/06/07 02:40:38;;;;;;;8.23;4.72;;;12.60;99.90;;;;;;5075234;28;20113;-69
2022/06/07 02:43:04;;;;;;;9.20;4.60;;;12.60;99.90;;;;;;5060098;28;20444;-69
2022/06/07 02:45:30;;;;;;;6.88;3.85;;;12.60;99.90;;;;;;5077428;28;20132;-69
2022/06/07 02:47:55;;;;;;;9.63;5.68;;;12.70;99.90;;;;;;5060367;28;20072;-69
2022/06/07 02:50:22;;;;;;;11.02;4.63;;;12.70;99.90;;;;;;5060145;28;20048;-69
2022/06/07 02:52:47;;;;;;;8.98;4.90;;;12.60;99.90;;;;;;5046996;28;20065;-69
2022/06/07 02:55:14;;;;;;;8.90;3.90;;;12.60;99.90;;;;;;5056257;28;20051;-70
2022/06/07 02:57:40;;;;;;;9.82;4.93;;;12.60;99.90;;;;;;5039697;28;20060;-70
2022/06/07 03:00:07;;;;;;;7.57;4.45;;;12.60;99.90;;;;;;5039599;28;20365;-69
2022/06/07 03:02:33;;;;;;;10.05;5.03;;;12.60;99.90;;;;;;5023327;28;20487;-69
2022/06/07 03:04:58;;;;;;;8.73;4.80;;;12.70;99.90;;;;;;5039969;28;20061;-69
2022/06/07 03:07:24;;;;;;;23.55;6.07;;;12.70;99.90;;;;;;5057140;28;20365;-69
2022/06/07 03:09:50;;;;;;;9.10;4.95;;;12.70;99.90;;;;;;5039667;28;20068;-70
2022/06/07 03:12:15;;;;;;;8.65;4.60;;;12.70;99.90;;;;;;5039359;28;20146;-69
2022/06/07 03:14:41;;;;;;;12.25;5.95;;;12.70;99.90;;;;;;5038700;28;20484;-69
2022/06/07 03:17:07;;;;;;;7.45;4.53;;;12.60;99.90;;;;;;5039873;28;20044;-69
2022/06/07 03:19:34;;;;;;;9.10;5.28;;;12.70;99.90;;;;;;5039281;28;20045;-69
2022/06/07 03:22:00;;;;;;;7.65;4.32;;;12.70;99.90;;;;;;5039669;28;20052;-69
2022/06/07 03:24:26;;;;;;;10.10;4.97;;;12.70;99.90;;;;;;5059580;28;20391;-69
2022/06/07 03:26:53;;;;;;;12.32;4.72;;;12.70;99.90;;;;;;5059261;28;20049;-69
2022/06/07 03:29:18;;;;;;;8.63;4.90;;;12.70;99.90;;;;;;5042947;28;20067;-68
2022/06/07 03:31:44;;;;;;;10.68;6.03;;;12.70;99.90;;;;;;5077019;28;20392;-69
2022/06/07 03:34:10;;;;;;;9.23;4.53;;;12.70;99.90;;;;;;5076622;28;20048;-69
2022/06/07 03:36:36;;;;;;;9.55;5.38;;;12.80;99.90;;;;;;5059389;28;20045;-69
2022/06/07 03:39:06;;;;;;;10.55;5.50;;;12.80;99.90;;;;;;5074162;28;20441;-69
2022/06/07 03:41:32;;;;;;;9.45;5.07;;;12.70;99.90;;;;;;5056092;28;20041;-69
2022/06/07 03:43:58;;;;;;;10.93;5.53;;;12.70;99.90;;;;;;5056212;28;20041;-69
2022/06/07 03:46:26;;;;;;;11.98;5.68;;;12.80;99.90;;;;;;5038843;28;20136;-69
2022/06/07 03:48:52;;;;;;;10.32;5.55;;;12.80;99.90;;;;;;5056524;28;20139;-69
2022/06/07 03:51:20;;;;;;;10.65;5.55;;;12.80;99.90;;;;;;5038846;28;20135;-69
2022/06/07 03:53:46;;;;;;;11.30;5.85;;;12.80;99.90;;;;;;5058283;28;20045;-70
2022/06/07 03:56:12;;;;;;;13.35;5.43;;;12.80;99.90;;;;;;5076371;28;20040;-70
2022/06/07 03:58:38;;;;;;;9.27;4.65;;;12.80;99.90;;;;;;5075814;28;20477;-68
2022/06/07 04:01:06;;;;;;;9.65;5.65;;;12.80;99.90;;;;;;5058420;28;20467;-69
2022/06/07 04:03:32;;;;;;;14.60;5.93;;;12.90;99.90;;;;;;5075496;28;20037;-68
2022/06/07 04:05:58;;;;;;;10.75;5.60;;;12.80;99.90;;;;;;5058368;28;20047;-69
2022/06/07 04:08:25;;;;;;;12.43;5.45;;;13.00;99.90;;;;;;5076416;28;20084;-69
2022/06/07 04:10:57;;;;;;;13.43;5.25;;;12.80;99.90;;;;;;5074465;28;20127;-68
2022/06/07 04:13:26;;;;;;;8.95;5.10;;;12.90;99.90;;;;;;5075587;28;20473;-69
2022/06/07 04:15:52;;;;;;;11.90;6.10;;;12.80;99.90;;;;;;5075049;28;20050;-69
2022/06/07 04:18:18;;;;;;;10.70;5.85;;;12.80;99.90;;;;;;5057791;28;20055;-69
2022/06/07 04:20:44;;;;;;;16.27;6.20;;;12.80;99.90;;;;;;5058024;28;20388;-68
2022/06/07 04:23:18;;;;;;;15.73;5.38;;;12.80;99.90;;;;;;5075002;28;20045;-69
2022/06/07 04:25:44;;;;;;;16.77;6.10;;;12.80;99.90;;;;;;5058083;28;20536;-69
2022/06/07 04:28:11;;;;;;;15.45;5.38;;;12.80;99.90;;;;;;5075830;28;20120;-69
2022/06/07 04:30:37;;;;;;;12.35;5.47;;;12.80;99.90;;;;;;5058025;28;20041;-69
2022/06/07 04:33:03;;;;;;;11.40;5.68;;;12.80;99.90;;;;;;5058077;28;20504;-69
2022/06/07 04:35:29;;;;;;;10.70;5.95;;;12.80;99.90;;;;;;5057573;28;20131;-68
2022/06/07 04:37:55;;;;;;;11.85;5.43;;;12.80;99.90;;;;;;5075631;28;20076;-69
2022/06/07 04:40:21;;;;;;;11.02;5.50;;;12.80;99.90;;;;;;5057716;28;20064;-70
2022/06/07 04:42:47;;;;;;;10.82;5.47;;;12.80;99.90;;;;;;5093119;28;20075;-69
2022/06/07 04:45:15;;;;;;;8.60;5.32;;;12.80;99.90;;;;;;5077358;28;20082;-69
2022/06/07 04:47:45;;;;;;;11.70;6.18;;;12.80;99.90;;;;;;5095470;28;20487;-69
2022/06/07 04:50:15;;;;;;;10.07;5.88;;;12.80;99.90;;;;;;5077421;28;20131;-70
2022/06/07 04:52:42;;;;;;;10.43;5.63;;;12.80;99.90;;;;;;5065423;28;20064;-69
2022/06/07 04:55:10;;;;;;;11.30;4.97;;;12.90;99.90;;;;;;5041244;28;20131;-69
2022/06/07 04:57:36;;;;;;;9.77;5.07;;;12.80;99.90;;;;;;5064939;28;20444;-69
2022/06/07 05:00:03;;;;;;;12.23;5.72;;;12.80;99.90;;;;;;5037681;28;20073;-70
2022/06/07 05:02:28;;;;;;;10.27;4.95;;;12.80;99.90;;;;;;5037407;28;20335;-70
2022/06/07 05:04:54;;;;;;;9.45;5.40;;;12.80;99.90;;;;;;5037418;28;20051;-69
2022/06/07 05:07:20;;;;;;;8.57;4.18;;;12.80;99.90;;;;;;5054860;28;20095;-69
2022/06/07 05:09:48;;;;;;;8.60;4.85;;;12.80;99.90;;;;;;5037523;28;20081;-69
2022/06/07 05:12:14;;;;;;;12.10;5.68;;;12.80;99.90;;;;;;5037657;28;20056;-69
2022/06/07 05:14:41;;;;;;;9.43;5.78;;;12.80;99.90;;;;;;5037301;28;20099;-69
2022/06/07 05:17:06;;;;;;;14.93;5.68;;;12.80;99.90;;;;;;5054509;28;20061;-69
2022/06/07 05:19:33;;;;;;;11.20;6.00;;;12.70;99.90;;;;;;5054996;28;20049;-71
2022/06/07 05:22:02;;;;;;;11.05;6.22;;;12.70;99.90;;;;;;5037352;28;20377;-69
2022/06/07 05:24:28;;;;;;;11.73;5.20;;;12.70;99.90;;;;;;5036577;28;20099;-69
2022/06/07 05:26:57;;;;;;;8.20;5.18;;;12.60;99.90;;;;;;5042153;28;20045;-69
2022/06/07 05:29:53;;;;;;;16.30;6.18;;;12.60;99.90;;;;;;5045283;28;20485;-68
2022/06/07 05:32:20;;;;;;;9.45;4.90;;;12.60;99.90;;;;;;5068501;28;20063;-68
2022/06/07 05:34:46;;;;;;;8.13;4.47;;;12.60;99.90;;;;;;5040971;28;20050;-69
2022/06/07 05:37:20;;;;;;;12.05;5.53;;;12.60;99.90;;;;;;5053139;28;20053;-68
2022/06/07 05:39:46;;;;;;;7.80;4.90;;;12.50;99.90;;;;;;5040830;28;20120;-69
2022/06/07 05:42:15;;;;;;;5.55;3.25;;;12.50;99.90;;;;;;5043123;28;20464;-70
2022/06/07 05:44:42;;;;;;;5.65;3.05;;;12.40;99.90;;;;;;5070113;28;20051;-69
2022/06/07 05:47:08;;;;;;;6.85;3.78;;;12.40;99.90;;;;;;5062475;28;20090;-71
2022/06/07 05:49:34;;;;;;;8.70;3.95;;;12.40;99.90;;;;;;5040512;28;20041;-71
2022/06/07 05:52:01;;;;;;;7.47;3.58;;;12.40;99.90;;;;;;5046069;28;20067;-69
2022/06/07 05:54:31;;;;;;;9.13;3.17;;;12.40;99.90;;;;;;5067302;28;20051;-68
2022/06/07 05:56:57;;;;;;;9.35;3.70;;;12.50;99.90;;;;;;5074026;28;20082;-69
2022/06/07 05:59:23;;;;;;;5.78;2.72;;;12.50;99.90;;;;;;5072947;28;20044;-69
2022/06/07 06:01:48;;;;;;;7.20;3.58;;;12.50;99.90;;;;;;5077058;28;20136;-69
2022/06/07 06:04:14;;;;;;;4.68;2.55;;;12.50;99.90;;;;;;5090770;28;20098;-69
2022/06/07 06:06:39;;;;;;;4.50;2.42;;;12.50;99.90;;;;;;5069222;28;20402;-69
2022/06/07 06:11:50;;;;;;;6.07;2.40;;;12.40;99.90;;;;;;5060944;28;20169;-69
2022/06/07 06:14:20;;;;;;;3.90;2.08;;;12.30;99.90;;;;;;5060103;28;20056;-69
2022/06/07 06:16:45;;;;;;;6.05;2.20;;;12.40;99.90;;;;;;5081328;28;20036;-69
2022/06/07 06:19:11;;;;;;;5.32;2.05;;;12.40;99.90;;;;;;5108500;28;20040;-69
2022/06/07 06:21:41;;;;;;;3.75;2.35;;;12.40;99.90;;;;;;5062997;28;20057;-69
2022/06/07 06:24:09;;;;;;;3.38;1.73;;;12.40;99.90;;;;;;5079893;28;20127;-69
2022/06/07 06:26:37;;;;;;;3.40;1.73;;;12.40;99.90;;;;;;5077473;28;20050;-70
2022/06/07 06:29:03;;;;;;;3.67;1.67;;;12.40;99.90;;;;;;5063466;28;20057;-68
2022/06/07 06:31:29;;;;;;;4.72;1.58;;;12.50;99.90;;;;;;5067248;28;20338;-70
2022/06/07 06:33:55;;;;;;;4.03;1.90;;;12.50;99.90;;;;;;5066896;28;20102;-69
2022/06/07 06:36:24;;;;;;;3.92;2.22;;;12.50;99.90;;;;;;5074201;28;20052;-70
2022/06/07 06:38:49;;;;;;;3.67;2.05;;;12.50;99.90;;;;;;5068542;28;20338;-71
2022/06/07 06:41:21;;;;;;;4.85;2.17;;;12.50;99.90;;;;;;5079233;28;20051;-71
2022/06/07 06:43:48;;;;;;;4.78;2.35;;;12.60;99.90;;;;;;5097610;28;20043;-70
2022/06/07 06:46:26;;;;;;;4.97;2.15;;;12.50;99.90;;;;;;5091683;28;20079;-69
2022/06/07 06:48:51;;;;;;;6.88;1.73;;;12.50;99.90;;;;;;5096185;28;20104;-70
2022/06/07 06:51:20;;;;;;;5.55;2.17;;;12.50;99.90;;;;;;5075117;28;20456;-69
2022/06/07 06:53:47;;;;;;;4.20;1.88;;;12.50;99.90;;;;;;5069479;28;20109;-69
2022/06/07 06:56:14;;;;;;;3.67;2.03;;;12.50;99.90;;;;;;5077208;28;20044;-69
2022/06/07 06:58:40;;;;;;;5.55;1.98;;;12.40;99.90;;;;;;5070613;28;20045;-69
2022/06/07 07:01:12;;;;;;;6.00;2.42;;;12.40;99.90;;;;;;5081518;28;20036;-69
2022/06/07 07:03:39;;;;;;;7.97;2.70;;;12.40;99.90;;;;;;5082472;28;20464;-69
2022/06/07 07:06:07;;;;;;;6.20;2.42;;;12.30;99.90;;;;;;5096205;28;20152;-69
2022/06/07 07:08:34;;;;;;;7.90;2.60;;;12.40;99.90;;;;;;5080837;28;20456;-69
2022/06/07 07:11:35;;;;;;;7.25;2.80;;;12.40;99.90;;;;;;5069823;28;20508;-69
2022/06/07 07:14:01;;;;;;;6.38;2.75;;;12.40;99.90;;;;;;5074061;28;20059;-69
2022/06/07 07:16:30;;;;;;;4.18;1.80;;;12.30;99.90;;;;;;5065218;28;20064;-71
2022/06/07 07:18:58;;;;;;;4.18;1.83;;;12.30;99.90;;;;;;5063036;28;20471;-69
2022/06/07 07:21:26;;;;;;;5.38;1.42;;;12.30;99.90;;;;;;5064032;28;20045;-69
2022/06/07 07:23:52;;;;;;;6.90;1.05;;;12.40;99.90;;;;;;5058790;28;20490;-69
2022/06/07 07:26:30;;;;;;;5.13;1.67;;;12.30;99.90;;;;;;5059526;28;20106;-70
2022/06/07 07:28:55;;;;;;;3.65;1.38;;;12.40;99.90;;;;;;5059098;28;20534;-70
2022/06/07 07:31:25;;;;;;;3.78;2.05;;;12.40;99.90;;;;;;5042168;28;20086;-70
2022/06/07 07:33:52;;;;;;;4.50;1.58;;;12.40;99.90;;;;;;5066682;28;20048;-69
2022/06/07 07:36:18;;;;;;;6.47;1.58;;;12.60;99.90;;;;;;5074357;28;20059;-69
2022/06/07 07:38:44;;;;;;;4.43;1.50;;;12.70;99.90;;;;;;5068246;28;20068;-69
2022/06/07 07:41:23;;;;;;;3.70;1.60;;;12.60;99.90;;;;;;5076840;28;20391;-70
2022/06/07 07:43:50;;;;;;;5.43;2.10;;;12.60;99.90;;;;;;5066542;28;20045;-69
2022/06/07 07:46:18;;;;;;;7.70;2.10;;;12.60;99.90;;;;;;5066009;28;20115;-69
2022/06/07 07:48:44;;;;;;;5.40;1.77;;;12.70;99.90;;;;;;5080879;28;20041;-69
2022/06/07 07:51:16;;;;;;;9.07;2.10;;;12.70;99.90;;;;;;5065064;28;20109;-70
2022/06/07 07:53:42;;;;;;;2.50;1.58;;;12.80;99.90;;;;;;5069680;28;20053;-69
2022/06/07 07:56:08;;;;;;;4.07;1.42;;;12.80;99.90;;;;;;5076053;28;20044;-69
2022/06/07 07:58:34;;;;;;;6.93;1.70;;;12.80;99.90;;;;;;5069489;28;20044;-69
2022/06/07 08:01:06;;;;;;;7.45;1.58;;;12.80;99.90;;;;;;5082374;28;20293;-69
2022/06/07 08:03:31;;;;;;;3.10;1.40;;;12.90;99.90;;;;;;5081681;28;20039;-69
2022/06/07 08:05:57;;;;;;;4.70;1.60;;;13.00;99.90;;;;;;5075195;28;20045;-70
2022/06/07 08:08:22;;;;;;;2.88;1.40;;;13.10;99.90;;;;;;5069945;28;20051;-69
2022/06/07 08:10:48;;;;;;;2.83;1.45;;;13.20;99.90;;;;;;5058760;28;20052;-69
2022/06/07 08:13:13;;;;;;;5.18;1.65;;;13.40;99.90;;;;;;5070501;28;20040;-69
2022/06/07 08:15:40;;;;;;;5.18;1.70;;;13.50;99.90;;;;;;5095815;28;20449;-68
2022/06/07 08:18:06;;;;;;;3.55;1.73;;;13.60;99.90;;;;;;5063313;28;20457;-69
2022/06/07 08:20:37;;;;;;;3.25;1.73;;;13.70;99.90;;;;;;5076727;28;20048;-71
2022/06/07 08:23:05;;;;;;;4.25;1.63;;;13.80;99.90;;;;;;5090484;28;20106;-68
2022/06/07 08:25:31;;;;;;;7.05;2.28;;;13.80;99.90;;;;;;5086927;28;20055;-69
2022/06/07 08:27:57;;;;;;;3.30;1.20;;;13.80;99.90;;;;;;5074245;28;20464;-69
2022/06/07 08:30:23;;;;;;;4.15;1.23;;;14.00;99.90;;;;;;5075372;28;20046;-69
2022/06/07 08:32:49;;;;;;;3.60;1.30;;;14.00;99.90;;;;;;5075468;28;20043;-69
2022/06/07 08:38:04;;;;;;;3.20;1.30;;;14.40;99.90;;;;;;5059635;28;20060;-69
2022/06/07 08:40:43;;;;;;;4.60;1.67;;;14.60;99.90;;;;;;5090442;28;20041;-69
2022/06/07 08:43:20;;;;;;;2.88;1.25;;;14.70;99.90;;;;;;5057754;28;20040;-69
2022/06/07 08:45:48;;;;;;;2.47;1.20;;;14.70;99.90;;;;;;5057262;28;20052;-69
2022/06/07 08:48:22;;;;;;;2.42;1.20;;;14.80;99.90;;;;;;5091181;28;20144;-69
2022/06/07 08:50:52;;;;;;;2.97;1.20;;;15.00;99.90;;;;;;5091198;28;20155;-69
2022/06/07 08:53:22;;;;;;;2.42;1.10;;;15.10;99.90;;;;;;5075114;28;20589;-69
2022/06/07 08:55:54;;;;;;;2.60;1.40;;;15.30;99.90;;;;;;5074866;28;20041;-69
2022/06/07 08:58:35;;;;;;;2.55;1.35;;;15.40;99.90;;;;;;5057330;28;20048;-69
2022/06/07 09:01:39;;;;;;;5.68;2.08;;;15.60;99.90;;;;;;5057454;28;20052;-69
2022/06/07 09:04:17;;;;;;;3.45;1.73;;;15.70;99.90;;;;;;5057554;28;20125;-69
2022/06/07 09:06:46;;;;;;;3.10;1.50;;;15.60;99.90;;;;;;5057057;28;20044;-69
2022/06/07 09:09:15;;;;;;;4.10;1.42;;;15.60;99.90;;;;;;5074551;28;20044;-69
2022/06/07 09:14:53;;;;;;;2.50;1.40;;;15.70;99.90;;;;;;5073262;28;20057;-69
2022/06/07 09:17:37;;;;;;;2.75;1.30;;;15.80;99.90;;;;;;5057154;28;20126;-69
2022/06/07 09:20:06;;;;;;;1.67;1.13;;;15.90;99.90;;;;;;5057645;28;20083;-69
2022/06/07 09:23:01;;;;;;;3.38;1.30;;;16.00;99.90;;;;;;5057348;28;20056;-69
2022/06/07 09:25:29;;;;;;;4.97;1.40;;;16.00;99.90;;;;;;5057209;28;20099;-69
2022/06/07 09:27:57;;;;;;;4.60;1.20;;;16.00;99.90;;;;;;5056633;28;20131;-69
2022/06/07 09:30:33;;;;;;;1.58;1.05;;;15.80;99.90;;;;;;5056954;28;20460;-69
2022/06/07 09:33:07;;;;;;;4.40;0.90;;;15.90;99.90;;;;;;5056851;28;20059;-69
2022/06/07 09:35:40;;;;;;;3.97;1.40;;;15.90;99.90;;;;;;5056661;28;20106;-69
2022/06/07 09:38:15;;;;;;;2.92;1.27;;;15.90;99.90;;;;;;5071875;28;20094;-69
2022/06/07 09:40:57;;;;;;;4.95;1.90;;;15.90;99.90;;;;;;5057247;28;20063;-69
2022/06/07 09:43:27;;;;;;;2.95;1.10;;;16.10;99.90;;;;;;5057193;28;20110;-69
2022/06/07 09:46:05;;;;;;;3.83;1.45;;;16.20;99.90;;;;;;5056868;28;20052;-69
2022/06/07 09:48:41;;;;;;;5.70;1.42;;;16.40;99.90;;;;;;5074330;28;20044;-69
2022/06/07 09:51:07;;;;;;;4.07;1.77;;;16.40;99.90;;;;;;5057121;28;20468;-69
2022/06/07 09:53:42;;;;;;;5.80;1.40;;;16.60;99.90;;;;;;5074135;28;20132;-69
2022/06/07 09:56:24;;;;;;;6.50;1.40;;;16.60;99.90;;;;;;5057224;28;20399;-69
2022/06/07 09:59:08;;;;;;;5.07;1.38;;;16.70;99.90;;;;;;5056745;28;20074;-69
2022/06/07 10:01:48;;;;;;;5.80;1.23;;;16.90;99.90;;;;;;5074286;28;20040;-69
2022/06/07 10:04:44;;;;;;;7.18;1.38;;;17.30;99.90;;;;;;5057010;28;20464;-69
2022/06/07 10:07:17;;;;;;;4.75;1.73;;;17.60;99.90;;;;;;5056526;28;20115;-69
2022/06/07 10:10:10;;;;;;;6.55;1.52;;;17.60;99.90;;;;;;5074129;28;20129;-69
2022/06/07 10:13:05;;;;;;;4.10;1.63;;;17.70;99.90;;;;;;5074695;28;20422;-69
2022/06/07 10:15:48;;;;;;;1.45;0.82;;;17.70;99.90;;;;;;5031002;28;20053;-69
2022/06/07 10:18:55;;;;;;;3.65;1.27;;;17.80;99.90;;;;;;5057288;28;20113;-69
2022/06/07 10:21:30;;;;;;;3.97;1.83;;;17.50;99.90;;;;;;5028786;28;20439;-69
2022/06/07 10:24:23;;;;;;;7.00;1.83;;;17.20;99.90;;;;;;5067775;28;20052;-69
2022/06/07 10:27:11;;;;;;;5.80;1.38;;;17.20;99.90;;;;;;5080038;28;20437;-69
2022/06/07 10:30:01;;;;;;;5.82;1.50;;;17.20;99.90;;;;;;5098153;28;20080;-69
2022/06/07 10:32:27;;;;;;;2.15;0.90;;;17.10;99.90;;;;;;5080571;28;20075;-69
2022/06/07 10:35:17;;;;;;;4.50;1.20;;;17.00;99.90;;;;;;5097825;28;20149;-69
2022/06/07 10:38:11;;;;;;;5.40;1.73;;;17.10;99.90;;;;;;5085751;28;20056;-69
2022/06/07 10:40:46;;;;;;;5.25;1.55;;;17.20;99.90;;;;;;5077492;28;20052;-69
2022/06/07 10:43:22;;;;;;;6.32;1.95;;;17.20;99.90;;;;;;5060069;28;20059;-69
2022/06/07 10:45:51;;;;;;;5.68;1.85;;;17.30;99.90;;;;;;5086856;28;20048;-69
2022/06/07 10:48:21;;;;;;;3.75;1.15;;;17.60;99.90;;;;;;5079615;28;20127;-69
2022/06/07 10:51:01;;;;;;;10.07;1.77;;;17.60;99.90;;;;;;5079631;28;20101;-69
2022/06/07 10:53:38;;;;;;;3.85;1.08;;;17.50;99.90;;;;;;5097737;28;20055;-69
2022/06/07 10:56:23;;;;;;;4.75;1.42;;;17.40;99.90;;;;;;5079857;28;20051;-68
2022/06/07 10:58:52;;;;;;;5.63;1.65;;;17.30;99.90;;;;;;5080617;28;20050;-68
2022/06/07 11:01:42;;;;;;;4.57;1.20;;;17.50;99.90;;;;;;5075214;28;20044;-69
2022/06/07 11:10:22;;;;;;;3.67;0.93;;;18.40;99.90;;;;;;5060106;28;20064;-69
2022/06/07 11:13:02;;;;;;;7.18;1.98;;;18.80;99.90;;;;;;5059313;28;20059;-69
2022/06/07 11:15:42;;;;;;;10.48;2.42;;;19.10;99.90;;;;;;5069730;28;20063;-69
2022/06/07 11:18:21;;;;;;;6.00;1.55;;;19.30;99.90;;;;;;5096521;28;20055;-69
2022/06/07 11:21:00;;;;;;;3.80;1.08;;;19.20;99.90;;;;;;5079681;28;20143;-69
2022/06/07 11:23:33;;;;;;;4.88;1.40;;;19.30;99.90;;;;;;5062487;28;20052;-69
2022/06/07 11:26:17;;;;;;;6.13;1.45;;;19.20;99.90;;;;;;5079156;28;20052;-69
2022/06/07 11:28:49;;;;;;;4.18;1.40;;;19.20;99.90;;;;;;5079703;28;20418;-69
2022/06/07 11:31:21;;;;;;;3.45;1.15;;;19.00;99.90;;;;;;5083249;28;20043;-69
2022/06/07 11:33:53;;;;;;;2.33;1.20;;;19.00;99.90;;;;;;5096807;28;20051;-69
2022/06/07 11:36:24;;;;;;;4.13;1.30;;;19.00;99.90;;;;;;5096134;28;20055;-69
2022/06/07 11:39:04;;;;;;;8.80;1.77;;;18.80;99.90;;;;;;5078888;28;20451;-71
2022/06/07 11:41:42;;;;;;;2.45;1.30;;;18.70;99.90;;;;;;5096430;28;20677;-68
2022/06/07 11:44:10;;;;;;;4.63;1.08;;;18.60;99.90;;;;;;5079250;28;20106;-69
2022/06/07 11:46:36;;;;;;;5.95;1.42;;;18.30;99.90;;;;;;5096318;28;20501;-69
2022/06/07 11:49:24;;;;;;;3.67;1.00;;;18.20;99.90;;;;;;5078558;28;20044;-68
2022/06/07 11:51:57;;;;;;;8.48;1.35;;;18.20;99.90;;;;;;5078596;28;20062;-69
2022/06/07 11:54:28;;;;;;;10.60;1.63;;;18.20;99.90;;;;;;5096187;28;20063;-69
2022/06/07 11:56:58;;;;;;;4.35;1.35;;;18.10;99.90;;;;;;5096517;28;20040;-68
2022/06/07 11:59:25;;;;;;;3.45;1.30;;;18.00;99.90;;;;;;5078422;28;20044;-68
2022/06/07 12:01:53;;;;;;;3.58;1.45;;;17.90;99.90;;;;;;5074471;28;20334;-68
2022/06/07 12:04:37;;;;;;;10.60;1.95;;;17.90;99.90;;;;;;5058790;28;20048;-68
2022/06/07 12:07:15;;;;;;;3.13;1.45;;;17.80;99.90;;;;;;5058430;28;20052;-69
2022/06/07 12:09:51;;;;;;;6.00;1.80;;;17.90;99.90;;;;;;5077164;28;20052;-68
2022/06/07 12:12:24;;;;;;;4.57;1.98;;;18.20;99.90;;;;;;5078184;28;20044;-68
2022/06/07 12:15:17;;;;;;;4.03;0.93;;;18.60;99.90;;;;;;5078709;28;20063;-68
2022/06/07 12:18:00;;;;;;;4.68;1.42;;;18.90;99.90;;;;;;5095946;28;20521;-68
2022/06/07 12:20:38;;;;;;;4.65;1.40;;;19.00;99.90;;;;;;5077827;28;20048;-69
2022/06/07 12:23:31;;;;;;;7.60;1.40;;;18.80;99.90;;;;;;5070303;28;20368;-68
2022/06/07 12:26:02;;;;;;;3.13;1.25;;;19.00;99.90;;;;;;5057882;28;20131;-68
2022/06/07 12:28:31;;;;;;;3.50;1.40;;;19.10;99.90;;;;;;5057752;28;20144;-68
2022/06/07 12:30:58;;;;;;;4.30;1.20;;;19.10;99.90;;;;;;5075280;28;20071;-68
2022/06/07 12:33:29;;;;;;;3.42;1.33;;;19.30;99.90;;;;;;5075475;28;20365;-68
2022/06/07 12:36:01;;;;;;;5.80;1.60;;;19.30;99.90;;;;;;5057309;28;20052;-68
2022/06/07 12:38:28;;;;;;;4.57;1.30;;;19.10;99.90;;;;;;5083125;28;20079;-68
2022/06/07 12:41:02;;;;;;;4.55;1.30;;;19.10;99.90;;;;;;5077859;28;20052;-68
2022/06/07 12:43:34;;;;;;;4.82;1.20;;;19.00;99.90;;;;;;5095438;28;20334;-68
2022/06/07 12:46:07;;;;;;;5.13;1.67;;;18.80;99.90;;;;;;5078035;28;20052;-68
2022/06/07 12:48:40;;;;;;;6.73;1.43;;;18.60;99.90;;;;;;5094337;28;20448;-68
2022/06/07 12:51:22;;;;;;;4.20;1.40;;;18.40;99.90;;;;;;5077886;28;20463;-67
2022/06/07 12:53:50;;;;;;;6.38;1.90;;;18.30;99.90;;;;;;5072905;28;20048;-68
2022/06/07 12:56:18;;;;;;;4.68;1.48;;;18.30;99.90;;;;;;5057367;28;20136;-68
2022/06/07 12:58:52;;;;;;;4.45;1.45;;;18.50;99.90;;;;;;5057384;28;20063;-68
2022/06/07 13:01:36;;;;;;;5.85;2.50;;;18.90;99.90;;;;;;5057939;28;20056;-68
2022/06/07 13:04:16;;;;;;;3.38;1.73;;;19.40;99.90;;;;;;5057541;28;20427;-68
2022/06/07 13:07:01;;;;;;;3.85;1.15;;;19.50;99.90;;;;;;5057271;28;20109;-68
2022/06/07 13:09:26;;;;;;;3.25;1.20;;;19.50;99.90;;;;;;5090843;28;20048;-68
2022/06/07 13:11:52;;;;;;;5.35;1.83;;;19.60;99.90;;;;;;5077019;28;20047;-68
2022/06/07 13:14:18;;;;;;;9.82;1.58;;;19.70;99.90;;;;;;5077515;28;20394;-68
2022/06/07 13:16:46;;;;;;;6.88;1.23;;;19.80;99.90;;;;;;5095184;28;20455;-68
2022/06/07 13:19:15;;;;;;;8.82;1.90;;;20.00;99.90;;;;;;5094963;28;20051;-68
2022/06/07 13:21:59;;;;;;;5.80;1.40;;;20.10;99.90;;;;;;5077544;28;20060;-68